createdAt,value
2019-03-31T00:01:18.756Z,6.93
2019-03-31T00:03:47.016Z,6.03
2019-03-31T00:06:15.275Z,6.50
2019-03-31T00:08:43.558Z,6.87
2019-03-31T00:11:11.981Z,6.47
2019-03-31T00:13:40.238Z,6.50
2019-03-31T00:16:08.510Z,5.70
2019-03-31T00:18:36.797Z,6.00
2019-03-31T00:21:05.135Z,6.00
2019-03-31T00:23:33.392Z,5.10
2019-03-31T00:26:01.656Z,6.00
2019-03-31T00:28:29.950Z,5.70
2019-03-31T00:30:58.215Z,5.07
2019-03-31T00:33:26.502Z,5.30
2019-03-31T00:35:54.871Z,5.60
2019-03-31T00:38:23.140Z,5.50
2019-03-31T00:40:51.386Z,5.37
2019-03-31T00:43:19.760Z,5.50
2019-03-31T00:45:48.031Z,5.90
2019-03-31T00:48:16.299Z,5.60
2019-03-31T00:50:44.572Z,6.33
2019-03-31T00:53:13.873Z,6.00
2019-03-31T00:55:42.158Z,6.13
2019-03-31T00:58:10.409Z,6.17
2019-03-31T01:00:46.311Z,5.43
2019-03-31T01:03:15.126Z,8.07
2019-03-31T01:05:44.166Z,6.00
2019-03-31T01:08:13.028Z,6.27
2019-03-31T01:10:42.620Z,5.10
2019-03-31T01:13:11.269Z,6.60
2019-03-31T01:15:39.622Z,5.80
2019-03-31T01:18:08.665Z,5.40
2019-03-31T01:20:36.924Z,5.57
2019-03-31T01:23:05.577Z,6.23
2019-03-31T01:25:33.847Z,5.70
2019-03-31T01:28:02.121Z,5.83
2019-03-31T01:30:30.376Z,5.20
2019-03-31T01:32:58.920Z,5.40
2019-03-31T01:35:27.237Z,6.20
2019-03-31T01:37:55.741Z,5.93
2019-03-31T01:40:24.013Z,5.83
2019-03-31T01:42:52.278Z,5.80
2019-03-31T01:45:20.698Z,5.87
2019-03-31T01:47:48.986Z,5.83
2019-03-31T01:50:17.307Z,5.67
2019-03-31T01:52:45.586Z,6.27
2019-03-31T01:55:13.877Z,6.50
2019-03-31T01:57:42.120Z,6.00
2019-03-31T02:00:12.471Z,5.40
2019-03-31T02:02:40.739Z,6.20
2019-03-31T02:05:09.092Z,6.17
2019-03-31T02:07:37.408Z,5.30
2019-03-31T02:10:06.770Z,5.50
2019-03-31T02:12:35.041Z,5.20
2019-03-31T02:15:05.543Z,5.50
2019-03-31T02:17:33.807Z,6.83
2019-03-31T02:20:02.072Z,6.00
2019-03-31T02:22:30.352Z,6.40
2019-03-31T02:24:58.611Z,6.47
2019-03-31T02:27:26.942Z,5.53
2019-03-31T02:29:55.207Z,5.93
2019-03-31T02:32:24.797Z,6.00
2019-03-31T02:34:53.411Z,6.00
2019-03-31T02:37:21.665Z,5.97
2019-03-31T02:39:49.930Z,5.57
2019-03-31T02:42:18.202Z,6.00
2019-03-31T02:44:46.457Z,5.80
2019-03-31T02:47:14.764Z,5.30
2019-03-31T02:49:42.984Z,5.50
2019-03-31T02:52:11.429Z,6.13
2019-03-31T02:54:39.781Z,6.17
2019-03-31T02:57:08.313Z,6.37
2019-03-31T02:59:36.935Z,6.00
2019-03-31T03:02:05.198Z,5.80
2019-03-31T03:04:34.131Z,5.80
2019-03-31T03:07:03.857Z,5.73
2019-03-31T03:09:32.976Z,5.90
2019-03-31T03:12:01.616Z,5.90
2019-03-31T03:14:33.082Z,6.60
2019-03-31T03:17:01.356Z,6.27
2019-03-31T03:19:29.624Z,6.20
2019-03-31T03:21:57.895Z,6.30
2019-03-31T03:24:26.150Z,5.80
2019-03-31T03:26:54.419Z,7.07
2019-03-31T03:29:22.689Z,5.70
2019-03-31T03:31:51.193Z,6.50
2019-03-31T03:34:19.492Z,6.07
2019-03-31T03:36:47.741Z,5.73
2019-03-31T03:39:15.999Z,6.00
2019-03-31T03:41:44.391Z,6.70
2019-03-31T03:44:12.652Z,6.37
2019-03-31T03:46:40.920Z,6.60
2019-03-31T03:49:09.335Z,7.27
2019-03-31T03:51:37.710Z,6.17
2019-03-31T03:54:06.047Z,6.83
2019-03-31T03:56:34.297Z,7.10
2019-03-31T03:59:02.562Z,6.57
2019-03-31T04:01:31.880Z,7.00
2019-03-31T04:04:00.153Z,6.43
2019-03-31T04:06:28.412Z,7.03
2019-03-31T04:08:56.667Z,7.17
2019-03-31T04:11:25.266Z,7.63
2019-03-31T04:13:53.590Z,6.50
2019-03-31T04:16:21.916Z,7.73
2019-03-31T04:18:50.169Z,8.10
2019-03-31T04:21:18.442Z,7.60
2019-03-31T04:23:46.709Z,7.50
2019-03-31T04:26:15.044Z,7.40
2019-03-31T04:28:43.373Z,7.00
2019-03-31T04:31:11.618Z,7.73
2019-03-31T04:33:50.714Z,7.27
2019-03-31T04:36:09.859Z,7.40
2019-03-31T04:38:38.124Z,8.70
2019-03-31T04:41:06.391Z,7.17
2019-03-31T04:43:34.780Z,7.80
2019-03-31T04:46:03.040Z,7.20
2019-03-31T04:48:31.302Z,7.53
2019-03-31T04:50:59.565Z,7.97
2019-03-31T04:53:27.808Z,8.20
2019-03-31T04:55:56.062Z,7.87
2019-03-31T04:58:24.325Z,6.67
2019-03-31T05:00:52.574Z,7.30
2019-03-31T05:03:20.822Z,7.87
2019-03-31T05:05:49.100Z,7.80
2019-03-31T05:08:17.352Z,7.43
2019-03-31T05:10:45.616Z,7.40
2019-03-31T05:13:13.872Z,6.87
2019-03-31T05:15:42.126Z,7.87
2019-03-31T05:18:10.395Z,7.70
2019-03-31T05:20:38.659Z,6.97
2019-03-31T05:23:06.932Z,7.40
2019-03-31T05:25:35.177Z,7.23
2019-03-31T05:28:03.435Z,7.40
2019-03-31T05:30:31.690Z,7.93
2019-03-31T05:33:00.430Z,7.67
2019-03-31T05:35:28.683Z,7.97
2019-03-31T05:37:56.994Z,7.00
2019-03-31T05:40:25.256Z,7.40
2019-03-31T05:42:53.528Z,8.30
2019-03-31T05:45:21.792Z,7.57
2019-03-31T05:47:50.040Z,8.10
2019-03-31T05:50:18.340Z,7.90
2019-03-31T05:52:46.593Z,7.80
2019-03-31T05:55:14.860Z,7.67
2019-03-31T05:57:43.112Z,8.03
2019-03-31T06:00:11.363Z,7.90
2019-03-31T06:02:39.644Z,8.20
2019-03-31T06:05:07.898Z,8.17
2019-03-31T06:07:36.168Z,7.37
2019-03-31T06:10:06.480Z,8.20
2019-03-31T06:12:34.798Z,7.60
2019-03-31T06:15:03.128Z,8.67
2019-03-31T06:17:31.377Z,8.60
2019-03-31T06:19:59.664Z,8.50
2019-03-31T06:22:27.944Z,8.40
2019-03-31T06:24:56.213Z,8.40
2019-03-31T06:27:24.470Z,9.27
2019-03-31T06:29:52.744Z,8.10
2019-03-31T06:32:21.012Z,8.77
2019-03-31T06:34:49.281Z,8.20
2019-03-31T06:37:17.552Z,8.37
2019-03-31T06:39:45.809Z,8.77
2019-03-31T06:42:14.066Z,9.00
2019-03-31T06:44:42.333Z,9.13
2019-03-31T06:47:10.609Z,8.83
2019-03-31T06:49:38.873Z,8.80
2019-03-31T06:52:07.122Z,8.30
2019-03-31T06:54:35.402Z,9.40
2019-03-31T06:57:03.663Z,8.97
2019-03-31T06:59:31.911Z,8.90
2019-03-31T07:02:03.020Z,10.03
2019-03-31T07:04:30.173Z,10.03
2019-03-31T07:06:58.431Z,10.97
2019-03-31T07:09:26.915Z,10.33
2019-03-31T07:11:55.199Z,10.20
2019-03-31T07:14:23.488Z,9.43
2019-03-31T07:16:51.745Z,10.50
2019-03-31T07:19:20.023Z,10.00
2019-03-31T07:21:48.282Z,9.17
2019-03-31T07:24:16.549Z,9.50
2019-03-31T07:26:44.838Z,10.00
2019-03-31T07:29:13.104Z,10.40
2019-03-31T07:31:41.403Z,9.87
2019-03-31T07:34:09.665Z,9.30
2019-03-31T07:36:37.932Z,10.43
2019-03-31T07:39:06.905Z,11.70
2019-03-31T07:41:36.216Z,10.70
2019-03-31T07:44:04.500Z,11.40
2019-03-31T07:46:32.769Z,10.40
2019-03-31T07:49:01.048Z,10.60
2019-03-31T07:51:29.327Z,10.73
2019-03-31T07:53:57.626Z,9.83
2019-03-31T07:56:25.911Z,10.30
2019-03-31T07:58:54.218Z,9.40
2019-03-31T08:01:22.445Z,10.03
2019-03-31T08:03:50.708Z,9.63
2019-03-31T08:06:18.983Z,9.90
2019-03-31T08:08:47.239Z,10.00
2019-03-31T08:11:17.071Z,9.30
2019-03-31T08:13:45.588Z,9.20
2019-03-31T08:16:13.858Z,9.20
2019-03-31T08:18:42.128Z,8.90
2019-03-31T08:21:10.393Z,9.67
2019-03-31T08:23:38.669Z,8.43
2019-03-31T08:26:06.933Z,8.60
2019-03-31T08:28:35.199Z,9.23
2019-03-31T08:31:03.474Z,8.83
2019-03-31T08:33:31.725Z,9.50
2019-03-31T08:36:00.013Z,9.37
2019-03-31T08:38:28.280Z,9.30
2019-03-31T08:40:56.538Z,8.57
2019-03-31T08:43:24.869Z,8.60
2019-03-31T08:45:53.124Z,8.80
2019-03-31T08:48:21.399Z,9.17
2019-03-31T08:50:49.678Z,9.93
2019-03-31T08:53:17.945Z,11.10
2019-03-31T08:55:46.268Z,9.90
2019-03-31T08:58:14.504Z,10.97
2019-03-31T09:00:44.411Z,11.40
2019-03-31T09:03:12.681Z,9.17
2019-03-31T09:05:41.229Z,10.70
2019-03-31T09:08:09.471Z,10.60
2019-03-31T09:10:37.739Z,10.33
2019-03-31T09:13:06.109Z,10.17
2019-03-31T09:15:34.370Z,10.07
2019-03-31T09:18:02.629Z,9.80
2019-03-31T09:20:30.917Z,9.70
2019-03-31T09:22:59.183Z,9.63
2019-03-31T09:25:27.446Z,10.33
2019-03-31T09:27:55.741Z,9.93
2019-03-31T09:30:24.020Z,10.07
2019-03-31T09:32:52.288Z,10.07
2019-03-31T09:35:20.558Z,10.47
2019-03-31T09:37:48.847Z,10.00
2019-03-31T09:40:17.976Z,10.07
2019-03-31T09:42:46.234Z,10.37
2019-03-31T09:45:14.881Z,11.63
2019-03-31T09:47:43.163Z,10.80
2019-03-31T09:50:16.985Z,11.40
2019-03-31T09:52:43.758Z,10.37
2019-03-31T09:55:12.096Z,10.07
2019-03-31T09:57:40.370Z,9.27
2019-03-31T10:00:11.147Z,10.53
2019-03-31T10:02:39.541Z,11.30
2019-03-31T10:05:07.942Z,11.40
2019-03-31T10:07:36.314Z,10.77
2019-03-31T10:10:10.847Z,11.80
2019-03-31T10:12:39.106Z,10.70
2019-03-31T10:15:08.828Z,11.43
2019-03-31T10:17:37.103Z,10.27
2019-03-31T10:20:06.826Z,11.60
2019-03-31T10:22:35.092Z,10.93
2019-03-31T10:25:04.615Z,11.67
2019-03-31T10:27:32.895Z,12.43
2019-03-31T10:30:01.178Z,11.90
2019-03-31T10:32:29.453Z,12.13
2019-03-31T10:34:57.741Z,11.50
2019-03-31T10:37:27.543Z,11.17
2019-03-31T10:39:55.821Z,11.40
2019-03-31T10:42:24.106Z,11.53
2019-03-31T10:44:52.398Z,11.10
2019-03-31T10:47:20.665Z,11.40
2019-03-31T10:49:48.955Z,12.17
2019-03-31T10:52:17.211Z,12.30
2019-03-31T10:54:45.474Z,11.43
2019-03-31T10:57:13.782Z,11.00
2019-03-31T10:59:42.070Z,11.67
2019-03-31T11:02:10.360Z,11.57
2019-03-31T11:04:38.644Z,11.63
2019-03-31T11:07:06.942Z,11.20
2019-03-31T11:09:35.228Z,11.33
2019-03-31T11:12:03.511Z,11.83
2019-03-31T11:14:31.812Z,10.87
2019-03-31T11:17:00.090Z,11.30
2019-03-31T11:19:28.349Z,10.70
2019-03-31T11:22:01.218Z,9.63
2019-03-31T11:24:29.524Z,11.20
2019-03-31T11:26:57.779Z,11.50
2019-03-31T11:29:26.057Z,12.53
2019-03-31T11:31:54.332Z,11.23
2019-03-31T11:34:22.601Z,11.40
2019-03-31T11:36:50.891Z,10.73
2019-03-31T11:39:19.183Z,11.20
2019-03-31T11:41:47.455Z,12.73
2019-03-31T11:44:15.792Z,11.40
2019-03-31T11:46:44.094Z,11.50
2019-03-31T11:49:12.394Z,12.50
2019-03-31T11:51:40.679Z,11.93
2019-03-31T11:54:08.955Z,11.23
2019-03-31T11:56:37.235Z,11.00
2019-03-31T11:59:05.532Z,11.70
2019-03-31T12:01:33.810Z,10.57
2019-03-31T12:04:02.079Z,10.50
2019-03-31T12:06:30.347Z,10.60
2019-03-31T12:08:58.625Z,11.30
2019-03-31T12:11:26.993Z,10.90
2019-03-31T12:13:56.211Z,11.03
2019-03-31T12:16:27.613Z,12.63
2019-03-31T12:18:56.007Z,11.40
2019-03-31T12:21:24.360Z,11.57
2019-03-31T12:23:52.641Z,11.73
2019-03-31T12:26:20.924Z,11.20
2019-03-31T12:28:49.203Z,12.13
2019-03-31T12:31:17.494Z,10.20
2019-03-31T12:33:45.771Z,10.90
2019-03-31T12:36:14.175Z,11.87
2019-03-31T12:38:42.481Z,10.20
2019-03-31T12:41:10.734Z,9.30
2019-03-31T12:43:39.076Z,10.70
2019-03-31T12:46:07.380Z,9.97
2019-03-31T12:48:35.637Z,9.30
2019-03-31T12:51:04.023Z,8.10
2019-03-31T12:53:32.279Z,7.20
2019-03-31T12:56:00.802Z,8.13
2019-03-31T12:58:29.187Z,9.57
2019-03-31T13:00:57.531Z,8.53
2019-03-31T13:03:25.813Z,7.13
2019-03-31T13:05:54.074Z,7.60
2019-03-31T13:08:22.331Z,8.67
2019-03-31T13:10:50.685Z,7.50
2019-03-31T13:13:18.951Z,7.47
2019-03-31T13:15:47.231Z,7.33
2019-03-31T13:18:15.534Z,7.70
2019-03-31T13:20:43.898Z,7.40
2019-03-31T13:23:12.167Z,7.40
2019-03-31T13:25:40.465Z,7.40
2019-03-31T13:28:08.713Z,8.13
2019-03-31T13:30:36.980Z,8.17
2019-03-31T13:33:05.317Z,8.23
2019-03-31T13:35:33.673Z,8.10
2019-03-31T13:38:11.020Z,8.47
2019-03-31T13:40:31.926Z,7.93
2019-03-31T13:43:00.318Z,8.77
2019-03-31T13:45:28.589Z,7.87
2019-03-31T13:47:58.684Z,7.90
2019-03-31T13:50:26.835Z,8.20
2019-03-31T13:52:55.085Z,8.23
2019-03-31T13:55:23.377Z,6.97
2019-03-31T13:57:52.774Z,8.07
2019-03-31T14:00:36.023Z,7.07
2019-03-31T14:03:04.515Z,6.80
2019-03-31T14:05:32.778Z,6.50
2019-03-31T14:08:01.042Z,7.30
2019-03-31T14:10:29.382Z,7.30
2019-03-31T14:12:57.650Z,7.37
2019-03-31T14:15:25.918Z,7.70
2019-03-31T14:17:54.214Z,5.87
2019-03-31T14:20:22.530Z,7.20
2019-03-31T14:22:51.079Z,5.73
2019-03-31T14:25:19.382Z,6.50
2019-03-31T14:27:48.622Z,7.07
2019-03-31T14:30:19.335Z,6.13
2019-03-31T14:32:47.682Z,6.10
2019-03-31T14:35:16.028Z,6.70
2019-03-31T14:37:44.305Z,7.63
2019-03-31T14:40:12.569Z,6.03
2019-03-31T14:42:40.859Z,6.60
2019-03-31T14:45:10.828Z,5.93
2019-03-31T14:47:39.124Z,5.97
2019-03-31T14:50:07.466Z,6.57
2019-03-31T14:52:35.749Z,7.10
2019-03-31T14:55:04.764Z,5.62
2019-03-31T14:57:33.031Z,5.73
2019-03-31T15:00:13.967Z,5.17
2019-03-31T15:02:31.307Z,6.00
2019-03-31T15:04:59.574Z,6.07
2019-03-31T15:07:27.891Z,6.80
2019-03-31T15:09:56.132Z,7.23
2019-03-31T15:12:24.406Z,7.87
2019-03-31T15:14:52.680Z,8.60
2019-03-31T15:17:20.961Z,8.97
2019-03-31T15:19:49.245Z,8.90
2019-03-31T15:22:17.492Z,8.60
2019-03-31T15:24:45.770Z,9.83
2019-03-31T15:27:14.053Z,8.50
2019-03-31T15:29:42.391Z,9.33
2019-03-31T15:32:10.681Z,10.00
2019-03-31T15:34:38.951Z,15.57
2019-03-31T15:37:07.220Z,18.87
2019-03-31T15:39:35.491Z,20.13
2019-03-31T15:42:03.783Z,20.10
2019-03-31T15:44:32.046Z,19.57
2019-03-31T15:47:00.325Z,20.10
2019-03-31T15:49:28.605Z,24.97
2019-03-31T15:51:56.877Z,29.17
2019-03-31T15:54:25.172Z,30.93
2019-03-31T15:56:53.472Z,30.03
2019-03-31T15:59:21.763Z,30.90
2019-03-31T16:01:50.047Z,33.07
2019-03-31T16:04:18.335Z,31.67
2019-03-31T16:06:46.685Z,31.43
2019-03-31T16:09:23.362Z,33.67
2019-03-31T16:11:53.757Z,33.10
2019-03-31T16:14:14.986Z,34.17
2019-03-31T16:16:43.277Z,36.93
2019-03-31T16:19:11.569Z,35.03
2019-03-31T16:21:39.892Z,35.20
2019-03-31T16:24:08.104Z,35.63
2019-03-31T16:26:36.512Z,35.47
2019-03-31T16:29:04.882Z,35.83
2019-03-31T16:31:33.174Z,35.97
2019-03-31T16:34:01.440Z,33.40
2019-03-31T16:36:29.714Z,35.87
2019-03-31T16:38:57.991Z,35.33
2019-03-31T16:41:26.273Z,33.23
2019-03-31T16:43:54.574Z,32.17
2019-03-31T16:46:22.861Z,34.23
2019-03-31T16:48:51.157Z,32.83
2019-03-31T16:51:19.436Z,34.37
2019-03-31T16:53:47.749Z,31.23
2019-03-31T16:56:16.023Z,29.90
2019-03-31T16:58:44.312Z,29.47
2019-03-31T17:01:12.600Z,32.27
2019-03-31T17:03:44.711Z,30.80
2019-03-31T17:06:13.823Z,28.30
2019-03-31T17:08:42.169Z,29.30
2019-03-31T17:11:10.469Z,28.83
2019-03-31T17:13:38.766Z,28.80
2019-03-31T17:16:07.043Z,27.47
2019-03-31T17:18:35.416Z,27.63
2019-03-31T17:21:03.706Z,28.00
2019-03-31T17:23:31.986Z,26.03
2019-03-31T17:26:00.263Z,25.47
2019-03-31T17:28:28.566Z,24.83
2019-03-31T17:30:56.831Z,26.43
2019-03-31T17:33:25.128Z,25.13
2019-03-31T17:35:53.406Z,25.17
2019-03-31T17:38:21.694Z,25.77
2019-03-31T17:40:49.984Z,24.70
2019-03-31T17:43:18.320Z,24.57
2019-03-31T17:45:46.572Z,22.40
2019-03-31T17:48:14.898Z,22.80
2019-03-31T17:50:43.180Z,22.47
2019-03-31T17:53:11.460Z,23.40
2019-03-31T17:55:39.746Z,22.20
2019-03-31T17:58:08.016Z,21.03
2019-03-31T18:00:36.327Z,22.60
2019-03-31T18:03:04.666Z,21.67
2019-03-31T18:05:32.953Z,19.43
2019-03-31T18:08:01.217Z,19.10
2019-03-31T18:10:29.511Z,19.33
2019-03-31T18:12:57.783Z,18.70
2019-03-31T18:15:26.090Z,18.77
2019-03-31T18:17:54.366Z,18.50
2019-03-31T18:20:22.647Z,16.73
2019-03-31T18:22:50.934Z,16.43
2019-03-31T18:25:19.211Z,16.67
2019-03-31T18:27:47.498Z,15.93
2019-03-31T18:30:16.121Z,17.33
2019-03-31T18:32:44.401Z,16.00
2019-03-31T18:35:12.686Z,15.80
2019-03-31T18:37:40.963Z,17.50
2019-03-31T18:40:09.643Z,15.87
2019-03-31T18:42:37.999Z,15.97
2019-03-31T18:45:07.033Z,16.23
2019-03-31T18:47:35.301Z,15.33
2019-03-31T18:50:05.512Z,16.40
2019-03-31T18:52:33.818Z,16.60
2019-03-31T18:55:03.749Z,16.87
2019-03-31T18:57:33.688Z,17.10
2019-03-31T19:00:03.611Z,15.40
2019-03-31T19:02:45.587Z,15.60
2019-03-31T19:05:33.488Z,16.70
2019-03-31T19:08:19.493Z,15.97
2019-03-31T19:11:05.615Z,15.03
2019-03-31T19:13:35.536Z,14.57
2019-03-31T19:16:11.247Z,15.13
2019-03-31T19:18:56.524Z,15.70
2019-03-31T19:21:26.461Z,17.27
2019-03-31T19:23:56.376Z,16.90
2019-03-31T19:26:26.290Z,16.87
2019-03-31T19:29:02.202Z,14.23
2019-03-31T19:31:41.315Z,16.20
2019-03-31T19:34:14.186Z,14.33
2019-03-31T19:37:00.288Z,14.93
2019-03-31T19:39:36.210Z,15.17
2019-03-31T19:42:11.896Z,14.37
2019-03-31T19:44:50.687Z,14.77
2019-03-31T19:47:29.368Z,14.83
2019-03-31T19:49:59.293Z,14.67
2019-03-31T19:52:37.957Z,15.40
2019-03-31T19:55:23.571Z,15.50
2019-03-31T19:58:11.721Z,15.27
2019-03-31T20:00:57.651Z,14.83
2019-03-31T20:03:39.547Z,14.87
2019-03-31T20:06:25.640Z,15.37
2019-03-31T20:09:11.751Z,15.53
2019-03-31T20:11:44.498Z,14.53
2019-03-31T20:14:14.430Z,15.40
2019-03-31T20:16:54.347Z,16.70
2019-03-31T20:19:40.416Z,15.90
2019-03-31T20:22:22.269Z,15.50
2019-03-31T20:25:00.852Z,14.70
2019-03-31T20:27:36.599Z,15.63
2019-03-31T20:30:07.582Z,15.83
2019-03-31T20:32:37.491Z,15.17
2019-03-31T20:35:08.575Z,15.43
2019-03-31T20:37:47.522Z,15.33
2019-03-31T20:40:20.216Z,16.07
2019-03-31T20:42:50.147Z,16.13
2019-03-31T20:45:18.456Z,15.30
2019-03-31T20:47:46.729Z,16.60
2019-03-31T20:50:16.358Z,15.70
2019-03-31T20:52:44.634Z,16.60
2019-03-31T20:55:16.679Z,17.10
2019-03-31T20:57:43.027Z,15.27
2019-03-31T21:00:11.534Z,16.10
2019-03-31T21:02:39.835Z,15.67
2019-03-31T21:05:08.264Z,17.10
2019-03-31T21:07:36.550Z,15.50
2019-03-31T21:10:06.493Z,17.47
2019-03-31T21:12:34.789Z,16.40
2019-03-31T21:15:03.087Z,15.53
2019-03-31T21:17:31.401Z,15.80
2019-03-31T21:19:59.745Z,15.60
2019-03-31T21:22:28.032Z,16.80
2019-03-31T21:24:56.303Z,17.17
2019-03-31T21:27:26.278Z,17.10
2019-03-31T21:29:54.567Z,16.20
2019-03-31T21:32:22.828Z,17.33
2019-03-31T21:34:51.201Z,17.23
2019-03-31T21:37:19.469Z,16.30
2019-03-31T21:39:47.772Z,16.90
2019-03-31T21:42:16.171Z,17.53
2019-03-31T21:44:44.458Z,16.10
2019-03-31T21:47:12.730Z,16.90
2019-03-31T21:49:41.036Z,17.20
2019-03-31T21:52:09.302Z,21.20
2019-03-31T21:54:37.649Z,17.37
2019-03-31T21:57:05.920Z,16.37
2019-03-31T21:59:34.212Z,17.40
2019-03-31T22:02:02.483Z,15.87
2019-03-31T22:04:30.780Z,17.77
2019-03-31T22:06:59.043Z,17.87
2019-03-31T22:09:27.333Z,17.93
2019-03-31T22:11:55.618Z,17.53
2019-03-31T22:14:23.893Z,16.70
2019-03-31T22:16:52.183Z,17.47
2019-03-31T22:19:20.473Z,17.00
2019-03-31T22:21:48.754Z,17.50
2019-03-31T22:24:17.026Z,19.10
2019-03-31T22:26:45.323Z,17.50
2019-03-31T22:29:13.598Z,17.43
2019-03-31T22:31:41.899Z,17.73
2019-03-31T22:34:10.221Z,18.27
2019-03-31T22:36:38.488Z,18.50
2019-03-31T22:39:07.935Z,17.73
2019-03-31T22:41:36.361Z,18.23
2019-03-31T22:44:04.913Z,20.60
2019-03-31T22:46:33.191Z,17.20
2019-03-31T22:49:01.469Z,17.60
2019-03-31T22:51:29.732Z,17.60
2019-03-31T22:53:58.006Z,18.97
2019-03-31T22:56:26.285Z,18.07
2019-03-31T22:58:54.551Z,18.97
2019-03-31T23:01:22.989Z,18.47
2019-03-31T23:03:51.257Z,17.93
2019-03-31T23:06:19.534Z,17.77
2019-03-31T23:08:47.805Z,17.23
2019-03-31T23:11:16.072Z,18.40
2019-03-31T23:13:44.354Z,16.83
2019-03-31T23:16:12.697Z,22.73
2019-03-31T23:18:41.046Z,19.20
2019-03-31T23:21:09.310Z,20.00
2019-03-31T23:23:37.581Z,18.30
2019-03-31T23:26:05.871Z,19.77
2019-03-31T23:28:35.811Z,19.53
2019-03-31T23:31:04.393Z,18.73
2019-03-31T23:33:32.669Z,20.00
2019-03-31T23:36:00.937Z,20.53
2019-03-31T23:38:29.203Z,19.37
2019-03-31T23:40:57.480Z,20.93
2019-03-31T23:43:25.805Z,21.63
2019-03-31T23:45:54.092Z,20.43
2019-03-31T23:48:22.431Z,20.83
2019-03-31T23:50:50.706Z,20.30
2019-03-31T23:53:18.979Z,20.70
2019-03-31T23:55:47.242Z,21.27
2019-03-31T23:58:15.535Z,20.47
